Sikyon — V7UG2 — position and weather

sailwx.info

Track history (hours):
 
Tides and Currents Weather Stations Pressure Air Temp Water Temp Dewpoint Dewpoint Depression Visibility Wind Speed Wind Dir Waves Ship Positions

Sikyon

Last reported at 2018-Apr-21 17:00 UTC. Time now 2018-Apr-21 17:14 UTC.
Position N 44°09' E 028°47'.

Length 174 m; draft 5.9 m.

Type: Cargo ship. MMSI: 538002149.

Date/timePositionNaut miles runAvg speedWind from/ knotsBaromVisibWave heightAir tempDewpointWater temp
2018-Apr-21 17:00N 44°09' E 028°47'0 0.1
2018-Apr-21 16:24N 44°09' E 028°47'0 0.1
2018-Apr-21 16:00N 44°08' E 028°47'0 0.1
2018-Apr-21 15:30N 44°08' E 028°47'0 0.1
2018-Apr-21 15:00N 44°08' E 028°47'0 0.0
2018-Apr-21 14:30N 44°08' E 028°47'  
2018-Apr-18 05:24N 46°22' E 031°07'0 0.0
2018-Apr-18 04:36N 46°22' E 031°07'0 0.0
2018-Apr-18 04:30N 46°22' E 031°07'0 0.0
2018-Apr-18 04:00N 46°22' E 031°07'0 0.0
2018-Apr-18 03:30N 46°22' E 031°07'0 0.0
2018-Apr-18 03:00N 46°22' E 031°07'0 0.0
2018-Apr-18 02:30N 46°22' E 031°07'0 0.0
2018-Apr-18 02:00N 46°22' E 031°07'0 0.0
2018-Apr-18 01:18N 46°22' E 031°07'0 0.0
2018-Apr-18 01:00N 46°22' E 031°07'0 0.0
2018-Apr-18 00:30N 46°22' E 031°07'0 0.0
2018-Apr-18 00:00N 46°22' E 031°07'0 0.0
2018-Apr-17 23:30N 46°22' E 031°07'0 0.0
2018-Apr-17 23:00N 46°22' E 031°07'0 0.0
2018-Apr-17 22:30N 46°22' E 031°07'0 0.0
2018-Apr-17 21:54N 46°22' E 031°07'0 0.0
2018-Apr-17 21:30N 46°22' E 031°07'0 0.0
2018-Apr-17 20:48N 46°22' E 031°07'0 0.0
2018-Apr-17 20:24N 46°22' E 031°07'0 0.0
2018-Apr-17 20:00N 46°22' E 031°07'0 0.0
2018-Apr-17 07:03N 46°22' E 031°07'0 0.0
2018-Apr-17 06:57N 46°22' E 031°07'0 0.0
2018-Apr-17 06:30N 46°22' E 031°07'0 0.1
2018-Apr-17 05:54N 46°22' E 031°07'0 0.1
2018-Apr-17 03:12N 46°22' E 031°07'0 0.0
2018-Apr-17 03:00N 46°22' E 031°07'0 0.0
2018-Apr-17 02:24N 46°22' E 031°07'0 0.0
2018-Apr-17 02:00N 46°22' E 031°07'0 0.0
2018-Apr-17 01:30N 46°22' E 031°07'0 0.0
2018-Apr-17 01:00N 46°22' E 031°07'0 0.0
2018-Apr-17 00:12N 46°22' E 031°07'0 0.1
2018-Apr-17 00:00N 46°22' E 031°07'0 0.1
2018-Apr-16 23:30N 46°22' E 031°07'0 0.0
2018-Apr-16 22:54N 46°22' E 031°07'0 0.0
2018-Apr-16 22:30N 46°22' E 031°07'0 0.0
2018-Apr-16 22:00N 46°22' E 031°07'0 0.2
2018-Apr-16 21:30N 46°22' E 031°07'3 3.7
2018-Apr-16 20:49N 46°20' E 031°05'4 7.7
2018-Apr-16 20:18N 46°22' E 030°59'311.4
2018-Apr-16 20:00N 46°24' E 030°56'611.2
2018-Apr-16 19:27N 46°30' E 030°55'6 8.8
2018-Apr-16 18:48N 46°34' E 031°02'510.8
2018-Apr-16 18:21N 46°35' E 031°09'412.7
2018-Apr-16 18:00N 46°35' E 031°15'712.7
2018-Apr-16 17:28N 46°35' E 031°25'510.4
2018-Apr-16 17:00N 46°34' E 031°32'612.1
2018-Apr-16 16:30N 46°36' E 031°41'612.0
2018-Apr-16 16:00N 46°36' E 031°49'611.2
2018-Apr-16 15:30N 46°40' E 031°56'510.7
2018-Apr-16 15:00N 46°45' E 031°54'511.2
2018-Apr-16 14:30N 46°50' E 031°56'611.8
2018-Apr-16 14:00N 46°55' E 032°01'2 3.3
2018-Apr-16 13:29N 46°57' E 032°01'0 0.0
2018-Apr-16 12:59N 46°57' E 032°01'0 0.0
2018-Apr-16 12:29N 46°57' E 032°01'0 0.0
2018-Apr-16 11:59N 46°57' E 032°01'0 0.0
2018-Apr-16 11:29N 46°57' E 032°01'0 0.0
2018-Apr-16 10:59N 46°57' E 032°01'0 0.0
2018-Apr-16 10:29N 46°57' E 032°01'0 0.0
2018-Apr-16 09:59N 46°57' E 032°01'0 0.0
2018-Apr-16 09:29N 46°57' E 032°01'0 0.0
2018-Apr-16 08:59N 46°57' E 032°01'0 0.0
2018-Apr-16 08:29N 46°57' E 032°01'0 0.0
2018-Apr-16 07:59N 46°57' E 032°01'0 0.0
2018-Apr-16 07:29N 46°57' E 032°01'0 0.0
2018-Apr-16 06:59N 46°57' E 032°01'0 0.0
2018-Apr-16 06:29N 46°57' E 032°01'0 0.0
2018-Apr-16 05:59N 46°57' E 032°01'0 0.0
2018-Apr-16 05:29N 46°57' E 032°01'0 0.0
2018-Apr-16 04:59N 46°57' E 032°01'0 0.0
2018-Apr-16 04:29N 46°57' E 032°01'0 0.0
2018-Apr-16 03:59N 46°57' E 032°01'0 0.0
2018-Apr-16 03:29N 46°57' E 032°01'0 0.0
2018-Apr-16 02:59N 46°57' E 032°01'0 0.0
2018-Apr-16 02:29N 46°57' E 032°01'0 0.0
2018-Apr-16 01:59N 46°57' E 032°01'0 0.0
2018-Apr-16 01:29N 46°57' E 032°01'0 0.0
2018-Apr-16 00:59N 46°57' E 032°01'0 0.0
2018-Apr-16 00:29N 46°57' E 032°01'0 0.0
2018-Apr-15 23:59N 46°57' E 032°01'0 0.0
2018-Apr-15 23:29N 46°57' E 032°01'0 0.0
2018-Apr-15 22:59N 46°57' E 032°01'0 0.0
2018-Apr-15 22:29N 46°57' E 032°01'0 0.0
2018-Apr-15 21:59N 46°57' E 032°01'0 0.0
2018-Apr-15 21:29N 46°57' E 032°01'0 0.0
2018-Apr-15 20:59N 46°57' E 032°01'0 0.0
2018-Apr-15 20:29N 46°57' E 032°01'0 0.0
2018-Apr-15 19:59N 46°57' E 032°01'0 0.0
2018-Apr-15 19:29N 46°57' E 032°01'0 0.0
2018-Apr-15 18:59N 46°57' E 032°01'0 0.0
2018-Apr-15 18:29N 46°57' E 032°01'0 0.0
2018-Apr-15 17:59N 46°57' E 032°01'0 0.0
2018-Apr-15 17:29N 46°57' E 032°01'0 0.0
2018-Apr-15 16:56N 46°57' E 032°01'0 0.0
2018-Apr-15 16:29N 46°57' E 032°01'0 0.0
2018-Apr-15 15:59N 46°57' E 032°01'0 0.0
2018-Apr-15 15:29N 46°57' E 032°01'0 0.0
2018-Apr-15 14:59N 46°57' E 032°01'0 0.0
2018-Apr-15 14:29N 46°57' E 032°01'0 0.0
2018-Apr-15 13:59N 46°57' E 032°01'0 0.0
2018-Apr-15 13:29N 46°57' E 032°01'0 0.0
2018-Apr-15 12:59N 46°57' E 032°01'0 0.0
2018-Apr-15 12:29N 46°57' E 032°01'0 0.0
2018-Apr-15 11:59N 46°57' E 032°01'0 0.0
2018-Apr-15 11:29N 46°57' E 032°01'0 0.0
2018-Apr-15 10:59N 46°57' E 032°01'0 0.0
2018-Apr-15 10:29N 46°57' E 032°01'0 0.0
2018-Apr-15 09:59N 46°57' E 032°01'0 0.0
2018-Apr-15 09:29N 46°57' E 032°01'0 0.0
2018-Apr-15 08:59N 46°57' E 032°01'0 0.0
2018-Apr-15 08:29N 46°57' E 032°01'0 0.0
2018-Apr-15 07:59N 46°57' E 032°01'0 0.0
2018-Apr-15 07:29N 46°57' E 032°01'0 0.0
2018-Apr-15 06:59N 46°57' E 032°01'0 0.0
2018-Apr-15 06:29N 46°57' E 032°01'0 0.0
2018-Apr-15 05:59N 46°57' E 032°01'0 0.0
2018-Apr-15 05:29N 46°57' E 032°01'0 0.0
2018-Apr-15 04:59N 46°57' E 032°01'0 0.0
2018-Apr-15 04:29N 46°57' E 032°01'0 0.0
2018-Apr-15 03:59N 46°57' E 032°01'0 0.0
2018-Apr-15 03:26N 46°57' E 032°01'0 0.0
2018-Apr-15 02:59N 46°57' E 032°01'0 0.0
2018-Apr-15 02:29N 46°57' E 032°01'0 0.0
2018-Apr-15 01:59N 46°57' E 032°01'0 0.0
2018-Apr-15 01:29N 46°57' E 032°01'0 0.0
2018-Apr-15 00:59N 46°57' E 032°01'0 0.0
2018-Apr-15 00:29N 46°57' E 032°01'0 0.0
2018-Apr-14 23:59N 46°57' E 032°01'0 0.0
2018-Apr-14 23:29N 46°57' E 032°01'0 0.0
2018-Apr-14 22:59N 46°57' E 032°01'0 0.0
2018-Apr-14 22:29N 46°57' E 032°01'0 0.0
2018-Apr-14 21:59N 46°57' E 032°01'0 0.0
2018-Apr-14 21:29N 46°57' E 032°01'0 0.0
2018-Apr-14 20:59N 46°57' E 032°01'0 0.0
2018-Apr-14 20:29N 46°57' E 032°01'0 0.0
2018-Apr-14 19:59N 46°57' E 032°01'0 0.0
2018-Apr-14 19:26N 46°57' E 032°01'0 0.0
2018-Apr-14 18:59N 46°57' E 032°01'0 0.0
2018-Apr-14 18:29N 46°57' E 032°01'0 0.0
2018-Apr-14 17:59N 46°57' E 032°01'0 0.0
2018-Apr-14 17:29N 46°57' E 032°01'0 0.0
2018-Apr-14 16:59N 46°57' E 032°01'0 0.0
2018-Apr-14 16:29N 46°57' E 032°01'0 0.0
2018-Apr-14 15:59N 46°57' E 032°01'0 0.0
2018-Apr-14 15:29N 46°57' E 032°01'0 0.0
2018-Apr-14 14:59N 46°57' E 032°01'0 0.0
2018-Apr-14 14:29N 46°57' E 032°01'0 0.0
2018-Apr-14 13:59N 46°57' E 032°01'0 0.0
2018-Apr-14 13:29N 46°57' E 032°01'0 0.0
2018-Apr-14 12:59N 46°57' E 032°01'0 0.0
2018-Apr-14 12:29N 46°57' E 032°01'0 0.0
2018-Apr-14 11:59N 46°57' E 032°01'0 0.0
2018-Apr-14 11:29N 46°57' E 032°01'0 0.0
2018-Apr-14 10:59N 46°57' E 032°01'0 0.0
2018-Apr-14 10:29N 46°57' E 032°01'0 0.0
2018-Apr-14 09:59N 46°57' E 032°01'0 0.0
2018-Apr-14 09:29N 46°57' E 032°01'0 0.0
2018-Apr-14 08:59N 46°57' E 032°01'0 0.0
2018-Apr-14 08:29N 46°57' E 032°01'0 0.0
2018-Apr-14 07:59N 46°57' E 032°01'0 0.0
2018-Apr-14 07:29N 46°57' E 032°01'0 0.0
2018-Apr-14 06:59N 46°57' E 032°01'0 0.0
2018-Apr-14 06:29N 46°57' E 032°01'0 0.0
2018-Apr-14 05:59N 46°57' E 032°01'0 0.0
2018-Apr-14 05:29N 46°57' E 032°01'0 0.0
2018-Apr-14 04:59N 46°57' E 032°01'0 0.0
2018-Apr-14 04:29N 46°57' E 032°01'0 0.0
2018-Apr-14 03:59N 46°57' E 032°01'0 0.0
2018-Apr-14 03:29N 46°57' E 032°01'0 0.0
2018-Apr-14 02:59N 46°57' E 032°01'0 0.0
2018-Apr-14 02:29N 46°57' E 032°01'0 0.0
2018-Apr-14 01:59N 46°57' E 032°01'0 0.0
2018-Apr-14 01:29N 46°57' E 032°01'0 0.0
2018-Apr-14 00:59N 46°57' E 032°01'0 0.0
2018-Apr-14 00:29N 46°57' E 032°01'0 0.0
2018-Apr-13 23:59N 46°57' E 032°01'0 0.0
2018-Apr-13 23:29N 46°57' E 032°01'0 0.0
2018-Apr-13 22:59N 46°57' E 032°01'0 0.0
2018-Apr-13 22:29N 46°57' E 032°01'0 0.0
2018-Apr-13 21:59N 46°57' E 032°01'0 0.0
2018-Apr-13 21:29N 46°57' E 032°01'0 0.0
2018-Apr-13 20:59N 46°57' E 032°01'0 0.2
2018-Apr-13 20:30N 46°57' E 032°01'1 2.9
2018-Apr-13 20:00N 46°55' E 032°01'5 9.8
2018-Apr-13 19:30N 46°51' E 031°57'510.1
2018-Apr-13 19:01N 46°47' E 031°53'5 9.3
2018-Apr-13 18:30N 46°43' E 031°56'5 9.8
2018-Apr-13 18:00N 46°38' E 031°54'510.3
2018-Apr-13 17:29N 46°36' E 031°47'610.7
2018-Apr-13 16:58N 46°36' E 031°39'2910.2
2018-Apr-13 14:09N 46°33' E 030°57'1 4.3
2018-Apr-13 13:56N 46°32' E 030°56'4 9.4
2018-Apr-13 13:30N 46°28' E 030°57'610.6
2018-Apr-13 12:57N 46°23' E 030°57'4 8.1
2018-Apr-13 12:30N 46°20' E 031°01'  
Track history (hours):
 
Tides and Currents Weather Stations Pressure Air Temp Water Temp Dewpoint Dewpoint Depression Visibility Wind Speed Wind Dir Waves Ship Positions

Sikyon

Last reported at 2018-Apr-21 17:00 UTC. Time now 2018-Apr-21 17:14 UTC.
Position N 44°09' E 028°47'.

Length 174 m; draft 5.9 m.

Type: Cargo ship. MMSI: 538002149.

Date/timePositionNaut miles runAvg speedWind from/ knotsBaromVisibWave heightAir tempDewpointWater temp
2018-Apr-21 17:00N 44°09' E 028°47'0 0.1
2018-Apr-21 16:24N 44°09' E 028°47'0 0.1
2018-Apr-21 16:00N 44°08' E 028°47'0 0.1
2018-Apr-21 15:30N 44°08' E 028°47'0 0.1
2018-Apr-21 15:00N 44°08' E 028°47'0 0.0
2018-Apr-21 14:30N 44°08' E 028°47'  
2018-Apr-18 05:24N 46°22' E 031°07'0 0.0
2018-Apr-18 04:36N 46°22' E 031°07'0 0.0
2018-Apr-18 04:30N 46°22' E 031°07'0 0.0
2018-Apr-18 04:00N 46°22' E 031°07'0 0.0
2018-Apr-18 03:30N 46°22' E 031°07'0 0.0
2018-Apr-18 03:00N 46°22' E 031°07'0 0.0
2018-Apr-18 02:30N 46°22' E 031°07'0 0.0
2018-Apr-18 02:00N 46°22' E 031°07'0 0.0
2018-Apr-18 01:18N 46°22' E 031°07'0 0.0
2018-Apr-18 01:00N 46°22' E 031°07'0 0.0
2018-Apr-18 00:30N 46°22' E 031°07'0 0.0
2018-Apr-18 00:00N 46°22' E 031°07'0 0.0
2018-Apr-17 23:30N 46°22' E 031°07'0 0.0
2018-Apr-17 23:00N 46°22' E 031°07'0 0.0
2018-Apr-17 22:30N 46°22' E 031°07'0 0.0
2018-Apr-17 21:54N 46°22' E 031°07'0 0.0
2018-Apr-17 21:30N 46°22' E 031°07'0 0.0
2018-Apr-17 20:48N 46°22' E 031°07'0 0.0
2018-Apr-17 20:24N 46°22' E 031°07'0 0.0
2018-Apr-17 20:00N 46°22' E 031°07'0 0.0
2018-Apr-17 07:03N 46°22' E 031°07'0 0.0
2018-Apr-17 06:57N 46°22' E 031°07'0 0.0
2018-Apr-17 06:30N 46°22' E 031°07'0 0.1
2018-Apr-17 05:54N 46°22' E 031°07'0 0.1
2018-Apr-17 03:12N 46°22' E 031°07'0 0.0
2018-Apr-17 03:00N 46°22' E 031°07'0 0.0
2018-Apr-17 02:24N 46°22' E 031°07'0 0.0
2018-Apr-17 02:00N 46°22' E 031°07'0 0.0
2018-Apr-17 01:30N 46°22' E 031°07'0 0.0
2018-Apr-17 01:00N 46°22' E 031°07'0 0.0
2018-Apr-17 00:12N 46°22' E 031°07'0 0.1
2018-Apr-17 00:00N 46°22' E 031°07'0 0.1
2018-Apr-16 23:30N 46°22' E 031°07'0 0.0
2018-Apr-16 22:54N 46°22' E 031°07'0 0.0
2018-Apr-16 22:30N 46°22' E 031°07'0 0.0
2018-Apr-16 22:00N 46°22' E 031°07'0 0.2
2018-Apr-16 21:30N 46°22' E 031°07'3 3.7
2018-Apr-16 20:49N 46°20' E 031°05'4 7.7
2018-Apr-16 20:18N 46°22' E 030°59'311.4
2018-Apr-16 20:00N 46°24' E 030°56'611.2
2018-Apr-16 19:27N 46°30' E 030°55'6 8.8
2018-Apr-16 18:48N 46°34' E 031°02'510.8
2018-Apr-16 18:21N 46°35' E 031°09'412.7
2018-Apr-16 18:00N 46°35' E 031°15'712.7
2018-Apr-16 17:28N 46°35' E 031°25'510.4
2018-Apr-16 17:00N 46°34' E 031°32'612.1
2018-Apr-16 16:30N 46°36' E 031°41'612.0
2018-Apr-16 16:00N 46°36' E 031°49'611.2
2018-Apr-16 15:30N 46°40' E 031°56'510.7
2018-Apr-16 15:00N 46°45' E 031°54'511.2
2018-Apr-16 14:30N 46°50' E 031°56'611.8
2018-Apr-16 14:00N 46°55' E 032°01'2 3.3
2018-Apr-16 13:29N 46°57' E 032°01'0 0.0
2018-Apr-16 12:59N 46°57' E 032°01'0 0.0
2018-Apr-16 12:29N 46°57' E 032°01'0 0.0
2018-Apr-16 11:59N 46°57' E 032°01'0 0.0
2018-Apr-16 11:29N 46°57' E 032°01'0 0.0
2018-Apr-16 10:59N 46°57' E 032°01'0 0.0
2018-Apr-16 10:29N 46°57' E 032°01'0 0.0
2018-Apr-16 09:59N 46°57' E 032°01'0 0.0
2018-Apr-16 09:29N 46°57' E 032°01'0 0.0
2018-Apr-16 08:59N 46°57' E 032°01'0 0.0
2018-Apr-16 08:29N 46°57' E 032°01'0 0.0
2018-Apr-16 07:59N 46°57' E 032°01'0 0.0
2018-Apr-16 07:29N 46°57' E 032°01'0 0.0
2018-Apr-16 06:59N 46°57' E 032°01'0 0.0
2018-Apr-16 06:29N 46°57' E 032°01'0 0.0
2018-Apr-16 05:59N 46°57' E 032°01'0 0.0
2018-Apr-16 05:29N 46°57' E 032°01'0 0.0
2018-Apr-16 04:59N 46°57' E 032°01'0 0.0
2018-Apr-16 04:29N 46°57' E 032°01'0 0.0
2018-Apr-16 03:59N 46°57' E 032°01'0 0.0
2018-Apr-16 03:29N 46°57' E 032°01'0 0.0
2018-Apr-16 02:59N 46°57' E 032°01'0 0.0
2018-Apr-16 02:29N 46°57' E 032°01'0 0.0
2018-Apr-16 01:59N 46°57' E 032°01'0 0.0
2018-Apr-16 01:29N 46°57' E 032°01'0 0.0
2018-Apr-16 00:59N 46°57' E 032°01'0 0.0
2018-Apr-16 00:29N 46°57' E 032°01'0 0.0
2018-Apr-15 23:59N 46°57' E 032°01'0 0.0
2018-Apr-15 23:29N 46°57' E 032°01'0 0.0
2018-Apr-15 22:59N 46°57' E 032°01'0 0.0
2018-Apr-15 22:29N 46°57' E 032°01'0 0.0
2018-Apr-15 21:59N 46°57' E 032°01'0 0.0
2018-Apr-15 21:29N 46°57' E 032°01'0 0.0
2018-Apr-15 20:59N 46°57' E 032°01'0 0.0
2018-Apr-15 20:29N 46°57' E 032°01'0 0.0
2018-Apr-15 19:59N 46°57' E 032°01'0 0.0
2018-Apr-15 19:29N 46°57' E 032°01'0 0.0
2018-Apr-15 18:59N 46°57' E 032°01'0 0.0
2018-Apr-15 18:29N 46°57' E 032°01'0 0.0
2018-Apr-15 17:59N 46°57' E 032°01'0 0.0
2018-Apr-15 17:29N 46°57' E 032°01'0 0.0
2018-Apr-15 16:56N 46°57' E 032°01'0 0.0
2018-Apr-15 16:29N 46°57' E 032°01'0 0.0
2018-Apr-15 15:59N 46°57' E 032°01'0 0.0
2018-Apr-15 15:29N 46°57' E 032°01'0 0.0
2018-Apr-15 14:59N 46°57' E 032°01'0 0.0
2018-Apr-15 14:29N 46°57' E 032°01'0 0.0
2018-Apr-15 13:59N 46°57' E 032°01'0 0.0
2018-Apr-15 13:29N 46°57' E 032°01'0 0.0
2018-Apr-15 12:59N 46°57' E 032°01'0 0.0
2018-Apr-15 12:29N 46°57' E 032°01'0 0.0
2018-Apr-15 11:59N 46°57' E 032°01'0 0.0
2018-Apr-15 11:29N 46°57' E 032°01'0 0.0
2018-Apr-15 10:59N 46°57' E 032°01'0 0.0
2018-Apr-15 10:29N 46°57' E 032°01'0 0.0
2018-Apr-15 09:59N 46°57' E 032°01'0 0.0
2018-Apr-15 09:29N 46°57' E 032°01'0 0.0
2018-Apr-15 08:59N 46°57' E 032°01'0 0.0
2018-Apr-15 08:29N 46°57' E 032°01'0 0.0
2018-Apr-15 07:59N 46°57' E 032°01'0 0.0
2018-Apr-15 07:29N 46°57' E 032°01'0 0.0
2018-Apr-15 06:59N 46°57' E 032°01'0 0.0
2018-Apr-15 06:29N 46°57' E 032°01'0 0.0
2018-Apr-15 05:59N 46°57' E 032°01'0 0.0
2018-Apr-15 05:29N 46°57' E 032°01'0 0.0
2018-Apr-15 04:59N 46°57' E 032°01'0 0.0
2018-Apr-15 04:29N 46°57' E 032°01'0 0.0
2018-Apr-15 03:59N 46°57' E 032°01'0 0.0
2018-Apr-15 03:26N 46°57' E 032°01'0 0.0
2018-Apr-15 02:59N 46°57' E 032°01'0 0.0
2018-Apr-15 02:29N 46°57' E 032°01'0 0.0
2018-Apr-15 01:59N 46°57' E 032°01'0 0.0
2018-Apr-15 01:29N 46°57' E 032°01'0 0.0
2018-Apr-15 00:59N 46°57' E 032°01'0 0.0
2018-Apr-15 00:29N 46°57' E 032°01'0 0.0
2018-Apr-14 23:59N 46°57' E 032°01'0 0.0
2018-Apr-14 23:29N 46°57' E 032°01'0 0.0
2018-Apr-14 22:59N 46°57' E 032°01'0 0.0
2018-Apr-14 22:29N 46°57' E 032°01'0 0.0
2018-Apr-14 21:59N 46°57' E 032°01'0 0.0
2018-Apr-14 21:29N 46°57' E 032°01'0 0.0
2018-Apr-14 20:59N 46°57' E 032°01'0 0.0
2018-Apr-14 20:29N 46°57' E 032°01'0 0.0
2018-Apr-14 19:59N 46°57' E 032°01'0 0.0
2018-Apr-14 19:26N 46°57' E 032°01'0 0.0
2018-Apr-14 18:59N 46°57' E 032°01'0 0.0
2018-Apr-14 18:29N 46°57' E 032°01'0 0.0
2018-Apr-14 17:59N 46°57' E 032°01'0 0.0
2018-Apr-14 17:29N 46°57' E 032°01'0 0.0
2018-Apr-14 16:59N 46°57' E 032°01'0 0.0
2018-Apr-14 16:29N 46°57' E 032°01'0 0.0
2018-Apr-14 15:59N 46°57' E 032°01'0 0.0
2018-Apr-14 15:29N 46°57' E 032°01'0 0.0
2018-Apr-14 14:59N 46°57' E 032°01'0 0.0
2018-Apr-14 14:29N 46°57' E 032°01'0 0.0
2018-Apr-14 13:59N 46°57' E 032°01'0 0.0
2018-Apr-14 13:29N 46°57' E 032°01'0 0.0
2018-Apr-14 12:59N 46°57' E 032°01'0 0.0
2018-Apr-14 12:29N 46°57' E 032°01'0 0.0
2018-Apr-14 11:59N 46°57' E 032°01'0 0.0
2018-Apr-14 11:29N 46°57' E 032°01'0 0.0
2018-Apr-14 10:59N 46°57' E 032°01'0 0.0
2018-Apr-14 10:29N 46°57' E 032°01'0 0.0
2018-Apr-14 09:59N 46°57' E 032°01'0 0.0
2018-Apr-14 09:29N 46°57' E 032°01'0 0.0
2018-Apr-14 08:59N 46°57' E 032°01'0 0.0
2018-Apr-14 08:29N 46°57' E 032°01'0 0.0
2018-Apr-14 07:59N 46°57' E 032°01'0 0.0
2018-Apr-14 07:29N 46°57' E 032°01'0 0.0
2018-Apr-14 06:59N 46°57' E 032°01'0 0.0
2018-Apr-14 06:29N 46°57' E 032°01'0 0.0
2018-Apr-14 05:59N 46°57' E 032°01'0 0.0
2018-Apr-14 05:29N 46°57' E 032°01'0 0.0
2018-Apr-14 04:59N 46°57' E 032°01'0 0.0
2018-Apr-14 04:29N 46°57' E 032°01'0 0.0
2018-Apr-14 03:59N 46°57' E 032°01'0 0.0
2018-Apr-14 03:29N 46°57' E 032°01'0 0.0
2018-Apr-14 02:59N 46°57' E 032°01'0 0.0
2018-Apr-14 02:29N 46°57' E 032°01'0 0.0
2018-Apr-14 01:59N 46°57' E 032°01'0 0.0
2018-Apr-14 01:29N 46°57' E 032°01'0 0.0
2018-Apr-14 00:59N 46°57' E 032°01'0 0.0
2018-Apr-14 00:29N 46°57' E 032°01'0 0.0
2018-Apr-13 23:59N 46°57' E 032°01'0 0.0
2018-Apr-13 23:29N 46°57' E 032°01'0 0.0
2018-Apr-13 22:59N 46°57' E 032°01'0 0.0
2018-Apr-13 22:29N 46°57' E 032°01'0 0.0
2018-Apr-13 21:59N 46°57' E 032°01'0 0.0
2018-Apr-13 21:29N 46°57' E 032°01'0 0.0
2018-Apr-13 20:59N 46°57' E 032°01'0 0.2
2018-Apr-13 20:30N 46°57' E 032°01'1 2.9
2018-Apr-13 20:00N 46°55' E 032°01'5 9.8
2018-Apr-13 19:30N 46°51' E 031°57'510.1
2018-Apr-13 19:01N 46°47' E 031°53'5 9.3
2018-Apr-13 18:30N 46°43' E 031°56'5 9.8
2018-Apr-13 18:00N 46°38' E 031°54'510.3
2018-Apr-13 17:29N 46°36' E 031°47'610.7
2018-Apr-13 16:58N 46°36' E 031°39'2910.2
2018-Apr-13 14:09N 46°33' E 030°57'1 4.3
2018-Apr-13 13:56N 46°32' E 030°56'4 9.4
2018-Apr-13 13:30N 46°28' E 030°57'610.6
2018-Apr-13 12:57N 46°23' E 030°57'4 8.1
2018-Apr-13 12:30N 46°20' E 031°01'  

Dump ship's entire track history